Airfield :
LOGIN :

Register | Disclaimer

   EN    FR    IT 

 










Legend :    VFR   Marginal VFR   IFR   Intensive IFR   Very Intensive IFR
Visi :
Ceiling :
>= 8 km
>= 3000ft
5 to 8 km
1000 to 3000 ft
1500m to 5 km
500 to 1000 ft
800 to 1500m
200 to 500 ft
< 800m
< 200 ft
Symbols :   Thunderstorms  Fog  Heavy snow  Heavy precipitations  Wind > 20 kt
SIGMETs :     Misc.  Thunderstorms  Icing  Turbulence  Mountain Waves  Volcanic Ashes







- Airport Elevation : 1411 ft
- IATA code : SZG


LOWS - Salzburg

CURRENT METAR :
  • 161920Z 21010KT 160V240 9999 FEW040CB SCT120 18/12 Q1013 NOSIG

EXPIRED METARs :
  • 161850Z 23009KT 9999 FEW035 FEW040CB SCT120 20/12 Q1012 BECMG 15006KT
  • 161820Z 28004KT 240V320 9999 VCTS FEW035 FEW040CB BKN120 23/14 Q1012 TEMPO 15012KT BECMG NSW
  • 161750Z 34007KT 9999 FEW035 FEW040CB BKN090 22/14 Q1012 TEMPO VRB15G30KT -TSRA
  • 161720Z 35007KT 9999 FEW040 FEW040CB SCT100 23/14 Q1012 TEMPO VRB15G30KT TSRA
  • 161650Z 35007KT 310V020 9999 FEW040 SCT300 24/14 Q1012 TEMPO 28015KT TSRA

TAF AMD TAF LOWS
Valid from the 16 at 18:00 until the 17 at 18:00 UTC


161840Z 1618/1718 15006KT 9999 FEW060 SCT120 TX23/1713Z TN16/1704Z
TEMPO 1618/1620 23010KT
BECMG 1622/1700 -SHRA SCT030 BKN050
TEMPO 1622/1708 6000 SHRA FEW030TCU BKN040
BECMG 1706/1708 29008KT
PROB30
TEMPO 1710/1716 28012G22KT 6000 SHRA FEW030TCU BKN040
No reported NOTAMs for that airfield.



MET'MAP, your aeronautical weather chart ! - Copyright ORBIFLY December 2007 - Disclaimer

ORBIFLY MET'MAP TEAM :

Programming & Development : Alexandra Zaïnal
Concept & Development : Baudouin d'Aumeries
Co-Development & Prog : Marc-Olivier Méhu
Technical & hardware support : Manuel Goepfert

Contact : metmap@orbifly.com




SOURCES & CREDITS :

   NOAA